Time;durP1;ratioP1;P1;durP2;ratioP2;P2;SDS_P1;SDS_P2;PMS_P1;PMS_P2;Temp;Humidity;BMP_temperature;BMP_pressure;BME280_temperature;BME280_humidity;BME280_pressure;Samples;Min_cycle;Max_cycle;Signal;HPM_P1;HPM_P2
2022/01/10 00:01:56;;;;;;;100.38;44.72;;;0.70;99.90;;;;;;5040446;28;20063;-80
2022/01/10 00:04:21;;;;;;;105.38;43.25;;;0.60;99.90;;;;;;5041499;28;20423;-81
2022/01/10 00:06:47;;;;;;;111.25;46.05;;;0.60;99.90;;;;;;5045543;28;20048;-81
2022/01/10 00:09:13;;;;;;;107.97;44.45;;;0.60;99.90;;;;;;5048285;28;20035;-80
2022/01/10 00:11:41;;;;;;;99.88;45.72;;;0.70;99.90;;;;;;5047580;28;20255;-81
2022/01/10 00:14:07;;;;;;;109.50;46.13;;;0.60;99.90;;;;;;5044128;28;20141;-81
2022/01/10 00:16:33;;;;;;;128.82;51.95;;;0.70;99.90;;;;;;5041265;28;20232;-81
2022/01/10 00:18:58;;;;;;;115.88;52.25;;;0.80;99.90;;;;;;5040805;28;20485;-81
2022/01/10 00:21:24;;;;;;;223.52;103.63;;;0.70;99.90;;;;;;5040270;28;20617;-80
2022/01/10 00:23:50;;;;;;;175.40;76.78;;;0.80;99.90;;;;;;5039712;28;20029;-80
2022/01/10 00:26:16;;;;;;;158.98;74.70;;;0.80;99.90;;;;;;5039785;28;20278;-80
2022/01/10 00:28:41;;;;;;;143.55;62.30;;;0.80;99.90;;;;;;5039762;28;20475;-80
2022/01/10 00:31:07;;;;;;;103.35;48.72;;;0.80;99.90;;;;;;5039376;28;20206;-81
2022/01/10 00:33:33;;;;;;;109.45;46.30;;;0.90;99.90;;;;;;5039096;28;20114;-80
2022/01/10 00:35:59;;;;;;;117.57;49.28;;;0.90;99.90;;;;;;5039809;28;20438;-81
2022/01/10 00:38:26;;;;;;;104.18;44.85;;;0.90;99.90;;;;;;5037987;28;20020;-81
2022/01/10 00:40:55;;;;;;;99.93;45.33;;;1.00;99.90;;;;;;5038986;28;20101;-80
2022/01/10 00:43:35;;;;;;;105.45;43.28;;;1.00;99.90;;;;;;5039018;28;20021;-81
2022/01/10 00:46:03;;;;;;;98.10;43.38;;;1.00;99.90;;;;;;5038690;28;20055;-80
2022/01/10 00:48:28;;;;;;;100.10;44.10;;;1.00;99.90;;;;;;5039333;28;20676;-81
2022/01/10 00:50:55;;;;;;;107.32;45.38;;;1.00;99.90;;;;;;5039292;28;20029;-80
2022/01/10 00:53:21;;;;;;;102.95;43.55;;;1.00;99.90;;;;;;5039178;28;20107;-80
2022/01/10 00:55:46;;;;;;;98.88;43.75;;;1.00;99.90;;;;;;5039109;28;20017;-81
2022/01/10 00:58:12;;;;;;;107.72;44.63;;;1.00;99.90;;;;;;5038845;28;20256;-80
2022/01/10 01:00:38;;;;;;;95.93;42.75;;;1.10;99.90;;;;;;5038919;28;20033;-81
2022/01/10 01:03:04;;;;;;;102.53;43.03;;;1.10;99.90;;;;;;5038920;28;20024;-80
2022/01/10 01:05:38;;;;;;;114.90;49.55;;;1.10;99.90;;;;;;5038723;28;20017;-81
2022/01/10 01:08:08;;;;;;;119.10;53.60;;;2.10;99.90;;;;;;5038956;28;20056;-81
2022/01/10 01:13:10;;;;;;;127.45;52.85;;;1.20;99.90;;;;;;5038947;28;20025;-80
2022/01/10 01:15:56;;;;;;;118.75;49.45;;;1.20;99.90;;;;;;5037410;28;20025;-80
2022/01/10 01:18:47;;;;;;;108.38;47.08;;;1.10;99.90;;;;;;5037269;28;20025;-80
2022/01/10 01:24:01;;;;;;;86.15;40.70;;;1.10;99.90;;;;;;5038800;28;20494;-80
2022/01/10 01:26:31;;;;;;;96.80;41.20;;;1.00;99.90;;;;;;5036516;28;20075;-80
2022/01/10 01:28:56;;;;;;;82.60;35.72;;;1.10;99.90;;;;;;5038707;28;20075;-80
2022/01/10 01:31:25;;;;;;;83.93;36.97;;;1.00;99.90;;;;;;5038658;28;20041;-80
2022/01/10 01:33:51;;;;;;;79.88;36.20;;;1.80;99.90;;;;;;5037141;28;20442;-80
2022/01/10 01:36:22;;;;;;;90.75;38.20;;;0.90;99.90;;;;;;5038392;28;20112;-81
2022/01/10 01:38:48;;;;;;;83.22;36.15;;;0.90;99.90;;;;;;5036884;28;20229;-80
2022/01/10 01:41:37;;;;;;;81.10;36.50;;;0.90;99.90;;;;;;5036841;28;20511;-80
2022/01/10 01:44:08;;;;;;;84.13;36.03;;;0.80;99.90;;;;;;5036657;28;20361;-80
2022/01/10 01:46:34;;;;;;;82.70;35.63;;;0.90;99.90;;;;;;5036841;28;20270;-81
2022/01/10 01:49:01;;;;;;;81.93;37.72;;;0.90;99.90;;;;;;5038343;28;20051;-80
2022/01/10 01:51:27;;;;;;;87.40;39.22;;;0.90;99.90;;;;;;5038297;28;20021;-81
2022/01/10 01:53:53;;;;;;;81.35;36.20;;;0.90;99.90;;;;;;5036620;28;20031;-81
2022/01/10 01:56:20;;;;;;;87.35;37.85;;;1.00;99.90;;;;;;5036311;28;20196;-80
2022/01/10 01:58:51;;;;;;;90.78;38.72;;;1.00;99.90;;;;;;5037109;28;20025;-80
2022/01/10 02:01:18;;;;;;;90.13;38.50;;;1.00;99.90;;;;;;5036551;28;20114;-80
2022/01/10 02:03:45;;;;;;;89.60;39.33;;;1.00;99.90;;;;;;5038487;28;20217;-80
2022/01/10 02:06:12;;;;;;;88.97;38.00;;;1.00;99.90;;;;;;5038271;28;20078;-81
2022/01/10 02:08:45;;;;;;;84.70;37.80;;;1.00;99.90;;;;;;5038400;28;20025;-81
2022/01/10 02:11:13;;;;;;;89.15;39.70;;;1.10;99.90;;;;;;5038216;28;20025;-80
2022/01/10 02:14:00;;;;;;;91.53;40.00;;;1.10;99.90;;;;;;5034614;28;20132;-80
2022/01/10 02:16:44;;;;;;;97.57;43.83;;;1.10;99.90;;;;;;5034937;28;20551;-80
2022/01/10 02:19:10;;;;;;;110.43;48.13;;;2.00;99.90;;;;;;5018460;28;20035;-81
2022/01/10 02:21:36;;;;;;;143.38;62.92;;;1.20;99.90;;;;;;5034895;28;20127;-81
2022/01/10 02:24:03;;;;;;;134.10;56.70;;;1.20;99.90;;;;;;5034762;28;20041;-81
2022/01/10 02:26:30;;;;;;;103.13;44.92;;;1.20;99.90;;;;;;5034452;28;20027;-81
2022/01/10 02:28:55;;;;;;;189.88;70.40;;;1.20;99.90;;;;;;5017831;28;20029;-81
2022/01/10 02:31:21;;;;;;;178.25;67.18;;;1.20;99.90;;;;;;5034731;28;20215;-81
2022/01/10 02:33:50;;;;;;;326.55;111.50;;;1.20;99.90;;;;;;5034794;28;20108;-81
2022/01/10 02:39:00;;;;;;;138.82;56.42;;;1.20;99.90;;;;;;5034761;28;20398;-80
2022/01/10 02:41:38;;;;;;;131.25;52.22;;;0.50;99.90;;;;;;5034754;28;20597;-81
2022/01/10 02:44:08;;;;;;;118.72;48.50;;;1.30;99.90;;;;;;5035029;28;20041;-81
2022/01/10 02:46:35;;;;;;;144.30;53.53;;;1.30;99.90;;;;;;5037120;28;20250;-81
2022/01/10 02:49:10;;;;;;;114.38;46.17;;;1.30;99.90;;;;;;5038782;28;20025;-81
2022/01/10 02:51:39;;;;;;;140.82;54.45;;;1.30;99.90;;;;;;5038556;28;20229;-80
2022/01/10 02:54:07;;;;;;;165.10;64.28;;;1.30;99.90;;;;;;5038102;28;20108;-81
2022/01/10 02:56:33;;;;;;;129.70;52.45;;;1.40;99.90;;;;;;5036355;28;20025;-81
2022/01/10 02:58:59;;;;;;;98.15;42.25;;;-1.20;99.90;;;;;;5037775;28;20044;-81
2022/01/10 03:01:25;;;;;;;97.20;41.88;;;1.30;99.90;;;;;;5038078;28;20407;-81
2022/01/10 03:03:50;;;;;;;95.72;41.65;;;1.30;99.90;;;;;;5037774;28;20252;-81
2022/01/10 03:06:16;;;;;;;93.55;42.63;;;1.10;99.90;;;;;;5037903;28;20541;-81
2022/01/10 03:08:45;;;;;;;133.80;58.00;;;1.30;99.90;;;;;;5037972;28;20032;-80
2022/01/10 03:11:11;;;;;;;99.10;44.58;;;1.30;99.90;;;;;;5040009;28;20356;-81
2022/01/10 03:13:36;;;;;;;102.85;44.58;;;1.20;99.90;;;;;;5041413;28;20025;-79
2022/01/10 03:16:02;;;;;;;109.25;45.58;;;1.20;99.90;;;;;;5041730;28;20039;-81
2022/01/10 03:18:28;;;;;;;100.55;43.60;;;1.20;99.90;;;;;;5039896;28;20556;-80
2022/01/10 03:20:53;;;;;;;103.57;45.45;;;1.20;99.90;;;;;;5039961;28;20229;-81
2022/01/10 03:23:19;;;;;;;115.93;52.63;;;1.20;99.90;;;;;;5039782;28;20071;-80
2022/01/10 03:25:45;;;;;;;110.47;49.38;;;1.10;99.90;;;;;;5041406;28;20071;-80
2022/01/10 03:28:13;;;;;;;104.22;46.83;;;1.10;99.90;;;;;;5040418;28;20032;-81
2022/01/10 03:30:39;;;;;;;109.43;45.13;;;1.10;99.90;;;;;;5041609;28;20029;-80
2022/01/10 03:33:05;;;;;;;102.07;43.97;;;1.10;99.90;;;;;;5040189;28;20118;-81
2022/01/10 03:35:31;;;;;;;105.32;48.03;;;1.10;99.90;;;;;;5042474;28;20025;-81
2022/01/10 03:37:57;;;;;;;101.60;45.75;;;1.00;99.90;;;;;;5046719;28;20043;-81
2022/01/10 03:40:23;;;;;;;102.75;44.00;;;1.00;99.90;;;;;;5048341;28;20453;-81
2022/01/10 03:42:52;;;;;;;98.15;44.17;;;1.00;99.90;;;;;;5048842;28;20462;-81
2022/01/10 03:45:17;;;;;;;113.60;45.88;;;1.10;99.90;;;;;;5044305;28;20035;-80
2022/01/10 03:47:43;;;;;;;102.50;44.65;;;1.10;99.90;;;;;;5042715;28;20389;-80
2022/01/10 03:50:09;;;;;;;87.07;38.22;;;1.10;99.90;;;;;;5041750;28;20029;-81
2022/01/10 03:52:35;;;;;;;76.28;34.17;;;1.10;99.90;;;;;;5039656;28;20276;-81
2022/01/10 03:55:01;;;;;;;85.07;38.10;;;1.00;99.90;;;;;;5040468;28;20028;-81
2022/01/10 03:57:26;;;;;;;80.88;35.53;;;0.40;99.90;;;;;;5040413;28;20370;-81
2022/01/10 03:59:52;;;;;;;75.30;34.50;;;0.90;99.90;;;;;;5040276;28;20017;-81
2022/01/10 04:02:18;;;;;;;75.35;34.92;;;0.90;99.90;;;;;;5038688;28;20114;-81
2022/01/10 04:04:44;;;;;;;72.88;31.80;;;0.90;99.90;;;;;;5038803;28;20713;-81
2022/01/10 04:07:10;;;;;;;69.90;32.58;;;0.90;99.90;;;;;;5038651;28;20025;-81
2022/01/10 04:09:35;;;;;;;68.70;30.10;;;0.90;99.90;;;;;;5039904;28;20232;-81
2022/01/10 04:12:01;;;;;;;73.93;32.92;;;0.90;99.90;;;;;;5040329;28;20029;-81
2022/01/10 04:14:27;;;;;;;72.47;32.15;;;0.90;99.90;;;;;;5040188;28;20017;-80
2022/01/10 04:16:53;;;;;;;77.82;33.30;;;1.00;99.90;;;;;;5037845;28;20567;-81
2022/01/10 04:19:19;;;;;;;58.63;27.55;;;1.00;99.90;;;;;;5040158;28;20095;-81
2022/01/10 04:21:44;;;;;;;54.25;24.70;;;1.00;99.60;;;;;;5039848;28;20035;-80
2022/01/10 04:24:11;;;;;;;56.92;24.80;;;1.00;98.30;;;;;;5038219;28;20377;-80
2022/01/10 04:26:36;;;;;;;54.33;26.05;;;0.90;98.30;;;;;;5039767;28;20053;-80
2022/01/10 04:29:05;;;;;;;53.17;24.65;;;0.90;98.30;;;;;;5039445;28;20345;-81
2022/01/10 04:31:31;;;;;;;52.67;26.23;;;0.90;98.40;;;;;;5038018;28;20021;-80
2022/01/10 04:33:57;;;;;;;54.20;25.27;;;0.90;98.10;;;;;;5038161;28;20585;-81
2022/01/10 04:36:22;;;;;;;60.47;27.02;;;0.90;97.90;;;;;;5038281;28;20036;-81
2022/01/10 04:38:48;;;;;;;66.15;28.90;;;0.90;98.40;;;;;;5039238;28;20025;-80
2022/01/10 04:41:14;;;;;;;64.47;28.58;;;0.90;98.20;;;;;;5037808;28;20020;-81
2022/01/10 04:43:39;;;;;;;65.30;30.08;;;0.80;98.40;;;;;;5039219;28;20460;-80
2022/01/10 04:46:05;;;;;;;62.50;28.77;;;0.90;98.60;;;;;;5039229;28;20013;-80
2022/01/10 04:48:31;;;;;;;59.88;29.40;;;0.90;98.50;;;;;;5037705;28;20198;-81
2022/01/10 04:53:35;;;;;;;66.85;29.45;;;0.80;98.70;;;;;;5039275;28;20025;-81
2022/01/10 04:56:03;;;;;;;68.65;28.48;;;0.70;98.70;;;;;;5037452;28;20037;-80
2022/01/10 04:58:29;;;;;;;59.00;26.90;;;1.80;98.70;;;;;;5039201;28;20434;-81
2022/01/10 05:00:55;;;;;;;59.88;25.90;;;0.70;98.20;;;;;;5037702;28;20044;-81
2022/01/10 05:03:24;;;;;;;58.10;25.92;;;0.70;98.30;;;;;;5039012;28;20032;-81
2022/01/10 05:05:53;;;;;;;57.03;25.55;;;-1.10;97.60;;;;;;5037708;28;20032;-80
2022/01/10 05:08:20;;;;;;;60.50;26.88;;;0.80;98.00;;;;;;5037389;28;20217;-80
2022/01/10 05:10:49;;;;;;;60.15;26.40;;;0.80;97.90;;;;;;5037158;28;20407;-80
2022/01/10 05:13:15;;;;;;;60.40;27.30;;;0.70;98.00;;;;;;5020815;28;20221;-80
2022/01/10 05:15:46;;;;;;;61.22;26.48;;;0.70;98.00;;;;;;5038899;28;20025;-79
2022/01/10 05:18:20;;;;;;;58.72;24.52;;;0.70;97.50;;;;;;5037636;28;20145;-80
2022/01/10 05:20:46;;;;;;;56.50;25.45;;;2.90;97.90;;;;;;5037500;28;20018;-80
2022/01/10 05:23:12;;;;;;;57.38;25.75;;;0.70;97.50;;;;;;5038739;28;20040;-80
2022/01/10 05:25:43;;;;;;;56.00;24.35;;;0.60;97.60;;;;;;5037224;28;20025;-80
2022/01/10 05:28:14;;;;;;;52.60;24.67;;;0.60;97.70;;;;;;5038409;28;20356;-80
2022/01/10 05:30:40;;;;;;;53.50;25.25;;;0.50;97.80;;;;;;5038689;28;20032;-80
2022/01/10 05:33:09;;;;;;;57.15;25.15;;;0.60;97.70;;;;;;5038056;28;20074;-80
2022/01/10 05:35:36;;;;;;;55.72;24.27;;;0.50;98.20;;;;;;5036877;28;20091;-80
2022/01/10 05:38:06;;;;;;;54.05;24.77;;;0.50;97.80;;;;;;5038784;28;20052;-80
2022/01/10 05:40:32;;;;;;;56.45;25.73;;;0.50;98.00;;;;;;5038839;28;20029;-80
2022/01/10 05:42:58;;;;;;;63.45;26.92;;;0.50;97.90;;;;;;5038816;28;20484;-80
2022/01/10 05:45:24;;;;;;;55.22;24.80;;;0.40;98.30;;;;;;5038696;28;20086;-79
2022/01/10 05:47:50;;;;;;;50.70;24.63;;;0.30;98.30;;;;;;5038579;28;20021;-80
2022/01/10 05:50:20;;;;;;;59.60;25.75;;;0.30;98.90;;;;;;5037180;28;20438;-80
2022/01/10 05:52:46;;;;;;;50.20;22.13;;;0.20;98.70;;;;;;5038343;28;20024;-79
2022/01/10 05:55:13;;;;;;;52.03;22.63;;;0.20;98.50;;;;;;5037926;28;20029;-80
2022/01/10 05:57:39;;;;;;;49.28;21.42;;;0.10;99.10;;;;;;5036336;28;20416;-80
2022/01/10 06:00:08;;;;;;;53.75;23.00;;;0.00;98.50;;;;;;5038468;28;20054;-80
2022/01/10 06:02:34;;;;;;;47.78;22.50;;;0.00;99.10;;;;;;5036644;28;20411;-79
2022/01/10 06:05:06;;;;;;;50.38;22.52;;;0.00;99.10;;;;;;5038566;28;20021;-80
2022/01/10 06:07:31;;;;;;;48.10;22.20;;;-0.10;98.80;;;;;;5038942;28;20017;-80
2022/01/10 06:09:57;;;;;;;48.80;21.63;;;-0.70;98.80;;;;;;5039255;28;20028;-80
2022/01/10 06:12:22;;;;;;;51.28;22.65;;;-0.20;99.00;;;;;;5037917;28;20059;-80
2022/01/10 06:14:49;;;;;;;46.83;22.08;;;-0.20;99.20;;;;;;5037635;28;20386;-80
2022/01/10 06:17:15;;;;;;;50.13;21.73;;;-0.10;99.40;;;;;;5039760;28;20267;-80
2022/01/10 06:19:40;;;;;;;51.72;21.75;;;0.00;99.20;;;;;;5040069;28;20446;-80
2022/01/10 06:22:06;;;;;;;52.33;22.88;;;0.00;99.00;;;;;;5043894;28;20044;-80
2022/01/10 06:24:32;;;;;;;50.42;22.10;;;0.00;98.90;;;;;;5044374;28;20075;-80
2022/01/10 06:26:58;;;;;;;43.55;20.17;;;0.00;98.80;;;;;;5047607;28;20055;-82
2022/01/10 06:29:23;;;;;;;43.03;19.75;;;-0.10;98.70;;;;;;5041277;28;20037;-80
2022/01/10 06:31:49;;;;;;;49.95;20.55;;;-0.10;98.60;;;;;;5040131;28;20390;-80
2022/01/10 06:34:15;;;;;;;40.58;19.02;;;-0.50;98.80;;;;;;5039489;28;20025;-80
2022/01/10 06:36:40;;;;;;;42.03;18.50;;;-0.30;98.80;;;;;;5039602;28;20029;-80
2022/01/10 06:39:06;;;;;;;44.03;19.73;;;-0.30;98.80;;;;;;5037522;28;20429;-80
2022/01/10 06:41:32;;;;;;;42.47;20.02;;;-0.10;99.10;;;;;;5036356;28;20206;-80
2022/01/10 06:43:59;;;;;;;40.83;18.75;;;-0.20;99.20;;;;;;5039456;28;20127;-80
2022/01/10 06:46:25;;;;;;;44.97;19.63;;;-0.20;98.80;;;;;;5041993;28;20055;-80
2022/01/10 06:48:50;;;;;;;42.70;18.75;;;-0.20;99.10;;;;;;5042116;28;20060;-80
2022/01/10 06:51:16;;;;;;;45.47;20.17;;;-0.20;99.10;;;;;;5040221;28;20025;-80
2022/01/10 06:53:42;;;;;;;43.22;18.67;;;-0.20;99.50;;;;;;5040182;28;20048;-80
2022/01/10 06:56:07;;;;;;;40.35;18.92;;;-0.20;99.20;;;;;;5041777;28;20025;-80
2022/01/10 06:58:33;;;;;;;44.83;19.25;;;-0.30;99.50;;;;;;5041140;28;20209;-80
2022/01/10 07:00:59;;;;;;;44.55;19.45;;;-0.30;99.60;;;;;;5046533;28;20261;-80
2022/01/10 07:03:25;;;;;;;43.00;18.60;;;-0.30;99.80;;;;;;5047613;28;20041;-80
2022/01/10 07:05:50;;;;;;;34.22;16.40;;;-0.30;99.90;;;;;;5049060;28;20040;-80
2022/01/10 07:08:17;;;;;;;37.25;16.55;;;-0.30;99.90;;;;;;5045240;28;20025;-80
2022/01/10 07:10:43;;;;;;;37.72;16.73;;;-0.40;99.80;;;;;;5042859;28;20217;-79
2022/01/10 07:13:09;;;;;;;39.17;17.83;;;-0.30;99.90;;;;;;5042150;28;20021;-80
2022/01/10 07:15:34;;;;;;;39.50;17.95;;;-0.30;99.90;;;;;;5041506;28;20021;-80
2022/01/10 07:18:00;;;;;;;36.92;16.70;;;0.20;99.90;;;;;;5040375;28;20336;-80
2022/01/10 07:20:27;;;;;;;31.98;16.20;;;-0.30;99.90;;;;;;5042284;28;20246;-80
2022/01/10 07:22:53;;;;;;;38.78;18.05;;;-0.30;99.90;;;;;;5040827;28;20048;-80
2022/01/10 07:25:19;;;;;;;38.17;16.65;;;-0.40;99.90;;;;;;5041725;28;20025;-80
2022/01/10 07:27:45;;;;;;;37.28;17.40;;;-0.30;99.90;;;;;;5042210;28;20233;-80
2022/01/10 07:30:11;;;;;;;37.58;17.98;;;-0.30;99.90;;;;;;5040493;28;20251;-80
2022/01/10 07:32:37;;;;;;;36.67;17.92;;;-0.30;99.90;;;;;;5041447;28;20348;-80
2022/01/10 07:35:02;;;;;;;38.95;17.88;;;-0.20;99.90;;;;;;5041423;28;20263;-80
2022/01/10 07:37:28;;;;;;;39.35;17.70;;;-0.20;99.90;;;;;;5041073;28;20021;-81
2022/01/10 07:39:54;;;;;;;38.67;17.55;;;-0.20;99.90;;;;;;5040913;28;20021;-80
2022/01/10 07:42:51;;;;;;;39.35;17.90;;;-0.10;99.90;;;;;;5039946;28;20025;-80
2022/01/10 07:45:17;;;;;;;;;;;-0.40;99.90;;;;;;5041010;28;20025;-80
2022/01/10 07:47:43;;;;;;;40.17;19.33;;;-0.20;99.90;;;;;;5040762;28;20151;-80
2022/01/10 07:50:09;;;;;;;41.50;19.75;;;-0.10;99.90;;;;;;5039682;28;20124;-80
2022/01/10 07:52:35;;;;;;;35.08;17.52;;;-0.10;99.90;;;;;;5040636;28;20100;-80
2022/01/10 07:55:01;;;;;;;36.42;16.95;;;-0.10;99.90;;;;;;5040341;28;20025;-80
2022/01/10 07:57:27;;;;;;;36.28;16.60;;;-0.10;99.90;;;;;;5040226;28;20025;-80
2022/01/10 07:59:55;;;;;;;33.78;16.48;;;-0.10;99.90;;;;;;5039005;28;20083;-80
2022/01/10 08:02:22;;;;;;;32.15;16.27;;;-0.10;99.80;;;;;;5044938;28;20057;-80
2022/01/10 08:04:48;;;;;;;31.33;16.15;;;-0.20;99.90;;;;;;5039441;28;20040;-80
2022/01/10 08:07:14;;;;;;;33.33;16.58;;;-0.20;99.90;;;;;;5039159;28;20060;-80
2022/01/10 08:09:46;;;;;;;34.63;16.42;;;-0.20;99.90;;;;;;5041801;28;20124;-80
2022/01/10 08:12:12;;;;;;;32.97;15.93;;;-1.70;99.70;;;;;;5040631;28;20086;-80
2022/01/10 08:14:38;;;;;;;33.67;16.33;;;-0.20;99.90;;;;;;5040397;28;20706;-80
2022/01/10 08:17:04;;;;;;;36.13;17.15;;;-0.20;99.90;;;;;;5040267;28;20033;-80
2022/01/10 08:19:33;;;;;;;34.28;17.20;;;-0.10;99.90;;;;;;5040507;28;20034;-80
2022/01/10 08:22:01;;;;;;;41.53;19.73;;;-0.10;99.90;;;;;;5039962;28;20557;-80
2022/01/10 08:24:27;;;;;;;36.95;17.92;;;0.00;99.90;;;;;;5040205;28;20167;-80
2022/01/10 08:26:57;;;;;;;33.88;15.95;;;0.00;99.60;;;;;;5040787;28;20224;-80
2022/01/10 08:29:24;;;;;;;32.53;17.30;;;-0.10;99.40;;;;;;5040572;28;20025;-80
2022/01/10 08:31:50;;;;;;;40.90;18.70;;;0.00;99.70;;;;;;5039035;28;20139;-80
2022/01/10 08:34:16;;;;;;;38.33;18.73;;;0.00;99.90;;;;;;5039377;28;20714;-80
2022/01/10 08:36:42;;;;;;;40.83;18.90;;;-0.10;99.90;;;;;;5039108;28;20632;-80
2022/01/10 08:39:09;;;;;;;44.67;21.25;;;0.00;99.90;;;;;;5038872;28;20029;-80
2022/01/10 08:41:35;;;;;;;42.55;19.70;;;-0.10;99.90;;;;;;5040309;28;20387;-81
2022/01/10 08:44:03;;;;;;;47.05;21.08;;;-0.10;99.70;;;;;;5038652;28;20120;-80
2022/01/10 08:46:29;;;;;;;44.92;21.90;;;-1.00;99.90;;;;;;5040325;28;20032;-80
2022/01/10 08:48:58;;;;;;;48.75;21.92;;;0.40;99.90;;;;;;5040145;28;20032;-80
2022/01/10 08:51:24;;;;;;;50.20;23.30;;;0.00;99.90;;;;;;5038940;28;20036;-81
2022/01/10 08:53:51;;;;;;;49.78;22.45;;;-0.10;99.90;;;;;;5040365;28;20021;-80
2022/01/10 08:56:17;;;;;;;51.03;25.10;;;-0.10;99.90;;;;;;5040187;28;20036;-80
2022/01/10 08:58:44;;;;;;;43.97;20.45;;;0.00;99.90;;;;;;5039896;28;20120;-81
2022/01/10 09:01:10;;;;;;;39.65;20.00;;;0.10;99.60;;;;;;5039389;28;20025;-80
2022/01/10 09:03:37;;;;;;;42.83;20.05;;;0.00;99.90;;;;;;5040204;28;20247;-80
2022/01/10 09:06:02;;;;;;;35.80;18.85;;;0.10;99.90;;;;;;5038061;28;20218;-80
2022/01/10 09:08:33;;;;;;;35.42;18.55;;;0.10;99.60;;;;;;5040224;28;20326;-82
2022/01/10 09:10:59;;;;;;;42.08;17.33;;;0.00;99.50;;;;;;5039494;28;20032;-80
2022/01/10 09:13:25;;;;;;;37.60;17.90;;;0.10;99.60;;;;;;5039166;28;20063;-80
2022/01/10 09:15:52;;;;;;;40.70;19.65;;;0.10;99.50;;;;;;5040664;28;20052;-80
2022/01/10 09:18:20;;;;;;;42.42;19.83;;;0.10;99.40;;;;;;5038943;28;20505;-81
2022/01/10 09:20:46;;;;;;;41.08;18.92;;;0.20;99.40;;;;;;5041102;28;20533;-81
2022/01/10 09:23:12;;;;;;;36.15;17.90;;;0.20;99.00;;;;;;5041102;28;20352;-80
2022/01/10 09:25:38;;;;;;;41.47;19.65;;;0.20;99.10;;;;;;5040051;28;20206;-81
2022/01/10 09:28:05;;;;;;;45.35;20.98;;;1.10;99.10;;;;;;5041682;28;20127;-81
2022/01/10 09:30:32;;;;;;;47.92;21.40;;;0.40;98.40;;;;;;5041690;28;20037;-81
2022/01/10 09:32:58;;;;;;;45.05;19.80;;;0.30;98.20;;;;;;5024616;28;20025;-80
2022/01/10 09:35:24;;;;;;;84.85;35.28;;;0.20;98.50;;;;;;5045416;28;20413;-81
2022/01/10 09:37:51;;;;;;;88.75;39.47;;;0.00;99.00;;;;;;5046355;28;20116;-82
2022/01/10 09:40:23;;;;;;;155.77;55.83;;;0.00;99.40;;;;;;5046692;28;20328;-81
2022/01/10 09:42:51;;;;;;;65.35;28.50;;;0.10;99.50;;;;;;5047290;28;20150;-82
2022/01/10 09:45:17;;;;;;;59.28;25.88;;;0.20;99.50;;;;;;5042421;28;20572;-81
2022/01/10 09:47:43;;;;;;;78.80;33.97;;;0.30;99.00;;;;;;5042184;28;20025;-80
2022/01/10 09:50:10;;;;;;;75.43;34.85;;;0.20;99.20;;;;;;5041004;28;20407;-81
2022/01/10 09:52:38;;;;;;;59.05;28.35;;;0.30;99.10;;;;;;5024924;28;20273;-81
2022/01/10 09:55:04;;;;;;;60.80;27.73;;;0.40;99.00;;;;;;5039410;28;20083;-81
2022/01/10 09:57:29;;;;;;;59.75;27.70;;;0.50;98.70;;;;;;5040382;28;20025;-81
2022/01/10 09:59:58;;;;;;;61.22;26.00;;;0.40;98.60;;;;;;5045749;28;20345;-81
2022/01/10 10:02:31;;;;;;;59.33;26.50;;;0.50;99.00;;;;;;5056486;28;20269;-80
2022/01/10 10:04:57;;;;;;;56.33;25.42;;;0.30;98.80;;;;;;5052279;28;20084;-81
2022/01/10 10:07:24;;;;;;;57.80;25.58;;;0.30;99.20;;;;;;5053936;28;20396;-80
2022/01/10 10:09:50;;;;;;;59.13;24.88;;;0.10;99.30;;;;;;5040941;28;20056;-81
2022/01/10 10:12:16;;;;;;;60.05;26.92;;;0.30;99.60;;;;;;5040707;28;20064;-80
2022/01/10 10:14:45;;;;;;;57.47;26.10;;;0.40;99.40;;;;;;5039764;28;20305;-80
2022/01/10 10:17:17;;;;;;;54.28;25.02;;;0.30;99.30;;;;;;5036890;28;20395;-80
2022/01/10 10:19:43;;;;;;;51.53;24.58;;;0.40;99.50;;;;;;5042434;28;20671;-79
2022/01/10 10:22:09;;;;;;;54.50;23.88;;;0.30;99.70;;;;;;5042190;28;20264;-80
2022/01/10 10:24:34;;;;;;;53.78;24.30;;;0.20;99.60;;;;;;5042428;28;20075;-80
2022/01/10 10:27:00;;;;;;;52.38;24.80;;;0.30;99.90;;;;;;5042216;28;20029;-81
2022/01/10 10:29:27;;;;;;;49.25;23.42;;;0.10;99.70;;;;;;5041489;28;20049;-80
2022/01/10 10:31:55;;;;;;;61.95;25.52;;;0.20;99.50;;;;;;5040366;28;20316;-80
2022/01/10 10:34:23;;;;;;;51.70;22.67;;;0.10;99.60;;;;;;5041864;28;20362;-80
2022/01/10 10:37:01;;;;;;;53.92;23.98;;;0.10;99.70;;;;;;5039923;28;20021;-80
2022/01/10 10:39:47;;;;;;;56.10;25.40;;;0.10;99.70;;;;;;5041377;28;20025;-80
2022/01/10 10:42:16;;;;;;;53.17;23.75;;;-2.00;98.80;;;;;;5041402;28;20037;-80
2022/01/10 10:44:43;;;;;;;49.22;22.60;;;0.20;99.10;;;;;;5041260;28;20435;-79
2022/01/10 10:47:13;;;;;;;45.80;21.95;;;0.10;99.20;;;;;;5041174;28;20526;-79
2022/01/10 10:49:44;;;;;;;69.95;29.63;;;0.20;99.40;;;;;;5040025;28;20037;-79
2022/01/10 10:52:11;;;;;;;50.30;23.52;;;0.30;99.10;;;;;;5041204;28;20322;-80
2022/01/10 10:54:43;;;;;;;47.70;22.70;;;0.20;98.70;;;;;;5041502;28;20548;-79
2022/01/10 10:57:11;;;;;;;58.03;24.70;;;0.20;98.90;;;;;;5041156;28;20176;-79
2022/01/10 10:59:43;;;;;;;63.83;26.08;;;0.30;99.00;;;;;;5039789;28;20531;-79
2022/01/10 11:02:10;;;;;;;120.60;45.90;;;0.40;99.00;;;;;;5039379;28;20057;-80
2022/01/10 11:04:36;;;;;;;60.20;26.65;;;0.40;98.40;;;;;;5040893;28;20060;-79
2022/01/10 11:07:03;;;;;;;54.40;23.90;;;0.20;98.70;;;;;;5040588;28;20557;-80
2022/01/10 11:09:44;;;;;;;60.40;27.40;;;0.30;98.90;;;;;;5040598;28;20308;-79
2022/01/10 11:12:10;;;;;;;52.80;24.92;;;0.20;99.40;;;;;;5040867;28;20198;-79
2022/01/10 11:14:40;;;;;;;61.20;25.85;;;0.40;99.20;;;;;;5039218;28;20529;-79
2022/01/10 11:17:05;;;;;;;56.45;25.48;;;0.30;98.70;;;;;;5041028;28;20082;-79
2022/01/10 11:19:31;;;;;;;49.53;23.10;;;0.10;98.90;;;;;;5039319;28;20021;-80
2022/01/10 11:22:09;;;;;;;70.50;29.98;;;0.20;98.90;;;;;;5040667;28;20477;-79
2022/01/10 11:24:42;;;;;;;60.22;25.92;;;0.10;99.40;;;;;;5038841;28;20087;-80
2022/01/10 11:27:32;;;;;;;60.45;25.70;;;0.10;99.40;;;;;;5039101;28;20487;-79
2022/01/10 11:29:59;;;;;;;151.70;54.00;;;0.10;99.60;;;;;;5039750;28;20045;-79
2022/01/10 11:33:04;;;;;;;95.97;38.70;;;0.30;99.50;;;;;;5040153;28;20609;-79
2022/01/10 11:35:58;;;;;;;53.90;23.10;;;0.40;99.30;;;;;;5040391;28;20226;-80
2022/01/10 11:38:37;;;;;;;54.03;24.95;;;0.40;98.80;;;;;;5036995;28;20115;-79
2022/01/10 11:41:09;;;;;;;51.17;24.25;;;0.40;99.00;;;;;;5036912;28;20029;-78
2022/01/10 11:43:36;;;;;;;52.47;25.50;;;0.40;99.20;;;;;;5036740;28;20143;-79
2022/01/10 11:46:47;;;;;;;51.67;24.80;;;0.40;99.00;;;;;;5020107;28;20028;-79
2022/01/10 11:49:21;;;;;;;51.00;22.17;;;0.50;98.90;;;;;;5033627;28;20515;-79
2022/01/10 11:51:50;;;;;;;54.33;23.05;;;0.40;98.60;;;;;;5036842;28;20457;-79
2022/01/10 11:54:30;;;;;;;57.90;23.02;;;0.20;98.90;;;;;;5036457;28;20104;-79
2022/01/10 11:57:02;;;;;;;55.05;24.52;;;0.00;99.30;;;;;;5036412;28;20086;-79
2022/01/10 11:59:33;;;;;;;56.78;24.17;;;0.10;99.20;;;;;;5036139;28;20223;-79
2022/01/10 12:02:12;;;;;;;58.13;24.17;;;0.10;99.60;;;;;;5036012;28;20053;-79
2022/01/10 12:04:47;;;;;;;54.78;24.25;;;0.30;99.40;;;;;;5036551;28;20633;-79
2022/01/10 12:07:15;;;;;;;50.60;22.73;;;0.30;99.00;;;;;;5036618;28;20024;-79
2022/01/10 12:09:51;;;;;;;48.58;22.45;;;0.30;98.80;;;;;;5036393;28;20522;-79
2022/01/10 12:12:19;;;;;;;53.30;22.50;;;0.30;98.40;;;;;;5036118;28;20056;-79
2022/01/10 12:14:47;;;;;;;82.72;31.05;;;0.30;98.70;;;;;;5036874;28;20044;-79
2022/01/10 12:17:14;;;;;;;63.72;25.77;;;0.20;98.90;;;;;;5039718;28;20317;-79
2022/01/10 12:19:40;;;;;;;54.83;24.48;;;0.20;98.90;;;;;;5039480;28;20016;-79
2022/01/10 12:22:07;;;;;;;51.60;23.08;;;0.20;99.20;;;;;;5039044;28;20396;-80
2022/01/10 12:24:37;;;;;;;63.00;27.00;;;0.20;99.10;;;;;;5039484;28;20028;-79
2022/01/10 12:27:05;;;;;;;75.50;30.00;;;0.30;99.30;;;;;;5038142;28;20029;-79
2022/01/10 12:29:32;;;;;;;54.20;24.67;;;0.30;98.70;;;;;;5039385;28;20130;-79
2022/01/10 12:32:00;;;;;;;47.17;21.95;;;0.20;98.90;;;;;;5039362;28;20021;-79
2022/01/10 12:34:25;;;;;;;51.55;23.52;;;0.20;98.70;;;;;;5039300;28;20029;-79
2022/01/10 12:36:51;;;;;;;54.28;24.05;;;0.20;99.10;;;;;;5038381;28;20021;-79
2022/01/10 12:39:28;;;;;;;105.95;37.58;;;0.20;99.30;;;;;;5040272;28;20029;-79
2022/01/10 12:41:58;;;;;;;57.53;25.15;;;0.20;98.90;;;;;;5038356;28;20025;-79
2022/01/10 12:44:27;;;;;;;54.00;23.55;;;0.20;98.50;;;;;;5040993;28;20185;-79
2022/01/10 12:46:53;;;;;;;50.05;23.27;;;0.20;98.50;;;;;;5039819;28;20040;-79
2022/01/10 12:49:19;;;;;;;47.35;22.63;;;0.20;99.00;;;;;;5039229;28;20493;-79